• Join FlightAware (Why Join?)
  • Login
  • US Flag 
05:00PM EDT


 

Airport Tracker/Info


-or-


 

Live Flight TrackerFlight Track Log ✈ SWA4079 ✈ 01-Jan-2013 ✈ KMDW - KIAD

Flight Track Log - Related Links

Times and Time Zones

All times are in EST time to prevent confusion due to time zone crossing. See the SWA4079 flight status page for this flight to view local times or setup timezone preferences in your user account.

Time Position Orientation Groundspeed Altitude Reporting Facility
EST Latitude Longitude Course Direction KTS MPH feet Rate Location/Type
10:24PM 41.8167 -87.7500 107° East 193 222 2,800  Level Chicago TRACON
10:26PM 41.8228 -87.5253 88° East 287 330 10,800 3,300 Climbing Chicago Center
10:27PM 41.8125 -87.4119 97° East 313 360 14,100 2,760 Climbing Chicago Center
10:28PM 41.7947 -87.2797 100° East 355 409 16,500 2,580 Climbing Chicago Center
10:29PM 41.5811 -86.8445 107° East  Level Estimated
10:29PM 41.7733 -87.1389 101° East 380 437 19,500  Level Chicago Center
10:30PM 41.7625 -86.9944 96° East 392 451 22,200 2,460 Climbing Chicago Center
10:31PM 41.7644 -86.8408 89° East 409 471 24,600 1,920 Climbing Chicago Center
10:32PM 41.7664 -86.6594 89° East 431 496 26,200 1,320 Climbing Chicago Center
10:33PM 41.7675 -86.4808 89° East 472 543 27,400 1,380 Climbing Chicago Center
10:34PM 41.7667 -86.2925 90° East 502 578 29,100 1,620 Climbing Chicago Center
10:35PM 41.7561 -86.1028 94° East 511 588 30,700 1,440 Climbing Chicago Center
10:36PM 41.7433 -85.9083 95° East 520 598 32,100 1,320 Climbing Chicago Center
10:37PM 41.7311 -85.7067 95° East 536 617 33,400 1,200 Climbing Chicago Center
10:38PM 41.7183 -85.4983 95° East 549 632 34,600 1,260 Climbing Chicago Center
10:39PM 41.7008 -85.2728 96° East 554 638 36,000 1,320 Climbing Chicago Center
10:40PM 41.6894 -85.0706 94° East 569 655 37,400 1,320 Climbing Chicago Center
10:41PM 41.6789 -84.9431 96° East 560 644 38,100 1,020 Climbing Cleveland Center
10:42PM 41.6531 -84.7439 100° East 555 639 39,000 420 Climbing Cleveland Center
10:43PM 41.5822 -84.5672 118° Southeast 530 610 39,000  Level Cleveland Center
10:44PM 41.5131 -84.3936 118° Southeast 524 603 39,000  Level Cleveland Center
10:44PM 41.4856 -84.3253 118° Southeast 540 621 39,000  Level Chicago Center
10:45PM 41.4453 -84.2344 121° Southeast 544 626 39,000  Level Cleveland Center
10:46PM 41.3736 -84.0561 118° Southeast 544 626 39,000  Level Cleveland Center
10:47PM 41.3136 -83.8981 117° Southeast 539 620 39,000  Level Cleveland Center
10:48PM 41.2314 -83.7089 120° Southeast 539 620 39,000  Level Cleveland Center
10:49PM 41.1511 -83.5119 118° Southeast 539 620 39,000  Level Cleveland Center
10:50PM 41.0883 -83.3519 117° Southeast 546 628 39,000  Level Cleveland Center
10:51PM 41.0033 -83.1531 119° Southeast 553 636 39,000  Level Cleveland Center
10:52PM 40.8889 -82.8764 119° Southeast 532 612 39,000  Level Indianapolis Center
10:53PM 40.8147 -82.6989 119° Southeast 545 627 39,000  Level Indianapolis Center
10:54PM 40.7361 -82.5161 120° Southeast 556 640 39,000  Level Indianapolis Center
10:55PM 40.6844 -82.3958 120° Southeast 557 641 39,000 -120 Level Cleveland Center
10:56PM 40.6058 -82.2103 119° Southeast 562 647 38,800 -780 Descending Cleveland Center
10:57PM 40.5331 -82.0447 120° Southeast 569 655 37,500 -900 Descending Cleveland Center
10:58PM 40.4519 -81.8572 120° Southeast 580 667 37,000 -300 Descending Cleveland Center
10:59PM 40.3683 -81.6678 120° Southeast 592 681 37,000  Level Cleveland Center
11:00PM 40.2786 -81.4567 119° Southeast 597 687 37,000 -480 Level Cleveland Center
11:01PM 40.1964 -81.2708 120° Southeast 597 687 36,100 -900 Descending Cleveland Center
11:02PM 40.1161 -81.0825 119° Southeast 597 687 35,300 -540 Descending Cleveland Center
11:03PM 40.0333 -80.8975 120° Southeast 597 687 35,100 -180 Descending Cleveland Center
11:04PM 39.9503 -80.7131 120° Southeast 597 687 35,000 -60 Descending Cleveland Center
11:05PM 39.8669 -80.5289 120° Southeast 597 687 35,000 -600 Level Cleveland Center
11:06PM 39.7939 -80.3400 117° Southeast 597 687 33,900 -1,200 Descending Cleveland Center
11:08PM 39.6289 -79.8839 115° Southeast 560 644 31,000 -1,440 Descending Washington Center
11:09PM 39.5644 -79.7022 115° Southeast 555 639 29,000 -1,980 Descending Washington Center
11:10PM 39.5056 -79.5267 113° Southeast 544 626 27,000 -1,020 Descending Washington Center
11:11PM 39.4661 -79.3308 105° East 544 626 27,000 -180 Level Washington Center
11:12PM 39.4275 -79.1569 106° East 555 639 26,700 -1,320 Descending Washington Center
11:13PM 39.3917 -78.9592 103° East 560 644 24,400 -2,580 Descending Washington Center
11:14PM 39.3572 -78.7669 103° East 555 639 21,700 -2,700 Descending Washington Center
11:15PM 39.3244 -78.5803 103° East 543 625 19,000 -2,880 Descending Washington Center
11:16PM 39.2933 -78.4047 103° East 521 600 16,000 -2,880 Descending Washington Center
11:17PM 39.2236 -78.2547 121° Southeast 488 562 13,400 -2,640 Descending Washington Center
11:18PM 39.1578 -78.1292 124° Southeast 461 531 10,800 -1,620 Descending Washington Center
11:19PM 39.0994 -78.0175 124° Southeast 418 481 10,200 -1,320 Descending Washington Center
11:20PM 39.0472 -77.9169 124° Southeast 368 423 8,200 -1,500 Descending Washington Center
11:21PM 38.9950 -77.8136 123° Southeast 326 375 7,200 -1,020 Descending Washington Center
11:24PM 38.8667 -77.6333 132° Southeast 282 325 4,800 -840 Descending Potomac TRACON
11:25PM 38.8167 -77.5833 142° Southeast 225 259 4,400 -720 Descending Potomac TRACON
11:26PM 38.8167 -77.5167 90° East 206 237 3,400 -1,140 Descending Potomac TRACON
11:27PM 38.8500 -77.4667 49° Northeast 170 196 2,300 -900 Descending Potomac TRACON
11:28PM 38.8833 -77.4667 360° North 135 155 1,500 -720 Descending Potomac TRACON
11:29PM 38.9167 -77.4667 360° North 125 144 800 -720 Descending Potomac TRACON
11:31PM 38.9474 -77.4599 North  Level Estimated
11:38PM 38.9474 -77.4599 159° South  Level Estimated
11:39PM 38.9474 -77.4599 159° South  Level Estimated